Terminal Aerodrome Forecast
Issued by NWS

Home | Current Version | Previous Version | Text Only | Print | Product List | Glossary On
Versions: 1 2 3 4 5 6 7 8 9 10 11 12 13 14 15 16 17 18 19 20 21 22 23 24 25
000
FTUS45 KBOU 200503 AAE
TAFAPA
TAF AMD
KAPA 200503Z 2005/2024 30008KT P6SM VCSH BKN090 BKN120
      TEMPO 2005/2006 SCT050 BKN070
     FM200600 35008KT P6SM SCT090 BKN140
     FM200700 02005KT P6SM FEW100 SCT140 BKN220
     FM201200 24006KT P6SM FEW140 SCT220
     FM201900 29007KT P6SM SCT220=

USA.gov is the U.S. government's official web portal to all federal, state and local government web resources and services.